createdAt,value
2023-01-31T00:01:40.755Z,65.22
2023-01-31T00:04:12.301Z,65.75
2023-01-31T00:06:43.468Z,66.04
2023-01-31T00:09:12.385Z,66.09
2023-01-31T00:11:39.304Z,66.09
2023-01-31T00:14:13.786Z,66.30
2023-01-31T00:16:40.273Z,66.56
2023-01-31T00:19:09.349Z,66.10
2023-01-31T00:21:36.204Z,66.42
2023-01-31T00:24:05.512Z,66.22
2023-01-31T00:26:34.891Z,66.76
2023-01-31T00:29:04.499Z,66.81
2023-01-31T00:31:35.004Z,66.84
2023-01-31T00:34:04.819Z,66.82
2023-01-31T00:36:34.827Z,66.98
2023-01-31T00:39:06.569Z,67.29
2023-01-31T00:41:36.094Z,67.71
2023-01-31T00:44:04.054Z,67.30
2023-01-31T00:46:33.393Z,67.37
2023-01-31T00:48:59.973Z,67.41
2023-01-31T00:51:27.052Z,67.47
2023-01-31T00:53:54.462Z,67.29
2023-01-31T00:56:25.602Z,66.87
2023-01-31T00:58:53.543Z,67.27
2023-01-31T01:01:30.596Z,66.96
2023-01-31T01:03:58.133Z,66.86
2023-01-31T01:06:26.295Z,66.76
2023-01-31T01:08:54.708Z,66.67
2023-01-31T01:11:33.343Z,66.57
2023-01-31T01:14:00.910Z,67.07
2023-01-31T01:16:39.715Z,67.17
2023-01-31T01:19:12.065Z,67.12
2023-01-31T01:21:40.192Z,66.95
2023-01-31T01:24:13.602Z,66.48
2023-01-31T01:26:40.181Z,66.98
2023-01-31T01:29:06.768Z,66.68
2023-01-31T01:31:34.216Z,66.52
2023-01-31T01:34:06.897Z,66.96
2023-01-31T01:36:36.322Z,66.49
2023-01-31T01:39:06.439Z,66.30
2023-01-31T01:41:33.583Z,66.73
2023-01-31T01:44:02.591Z,66.96
2023-01-31T01:46:40.170Z,67.28
2023-01-31T01:49:34.668Z,67.66
2023-01-31T01:52:06.987Z,67.56
2023-01-31T01:54:50.597Z,67.63
2023-01-31T01:57:28.079Z,67.45
2023-01-31T02:00:20.534Z,67.20
2023-01-31T02:02:52.693Z,67.49
2023-01-31T02:05:30.681Z,67.05
2023-01-31T02:07:59.810Z,67.11
2023-01-31T02:10:48.790Z,67.26
2023-01-31T02:13:17.569Z,67.12
2023-01-31T02:15:45.037Z,67.05
2023-01-31T02:18:13.034Z,67.13
2023-01-31T02:21:14.010Z,66.95
2023-01-31T02:23:55.257Z,67.02
2023-01-31T02:27:04.443Z,67.17
2023-01-31T02:29:57.962Z,67.14
2023-01-31T02:32:46.692Z,67.59
2023-01-31T02:35:51.898Z,67.55
2023-01-31T02:38:58.922Z,67.65
2023-01-31T02:41:50.305Z,67.84
2023-01-31T02:44:53.281Z,67.54
2023-01-31T02:47:33.364Z,67.86
2023-01-31T02:50:27.966Z,67.62
2023-01-31T02:53:08.755Z,67.69
2023-01-31T02:56:03.641Z,67.50
2023-01-31T02:58:36.777Z,67.48
2023-01-31T03:01:06.999Z,67.32
2023-01-31T03:03:38.027Z,67.62
2023-01-31T03:06:25.470Z,67.61
2023-01-31T03:09:26.107Z,68.23
2023-01-31T03:12:11.380Z,67.88
2023-01-31T03:15:22.849Z,68.05
2023-01-31T03:18:14.811Z,67.63
2023-01-31T03:21:01.960Z,67.80
2023-01-31T03:23:31.622Z,68.94
2023-01-31T03:26:01.662Z,68.72
2023-01-31T03:28:32.777Z,68.54
2023-01-31T03:31:18.761Z,68.13
2023-01-31T03:33:55.876Z,68.26
2023-01-31T03:36:50.420Z,68.07
2023-01-31T03:39:36.178Z,68.02
2023-01-31T03:42:09.674Z,67.91
2023-01-31T03:44:56.394Z,67.82
2023-01-31T03:47:33.585Z,68.16
2023-01-31T03:50:10.503Z,68.36
2023-01-31T03:52:45.391Z,68.05
2023-01-31T03:55:27.571Z,67.82
2023-01-31T03:57:59.693Z,67.78
2023-01-31T04:00:27.707Z,68.21
2023-01-31T04:03:30.417Z,68.97
2023-01-31T04:05:57.541Z,69.20
2023-01-31T04:08:24.784Z,69.07
2023-01-31T04:10:51.587Z,69.04
2023-01-31T04:13:18.162Z,68.90
2023-01-31T04:15:44.695Z,68.68
2023-01-31T04:18:11.142Z,68.84
2023-01-31T04:20:37.626Z,68.97
2023-01-31T04:23:04.406Z,68.98
2023-01-31T04:25:32.792Z,68.82
2023-01-31T04:27:59.874Z,69.09
2023-01-31T04:30:26.525Z,68.60
2023-01-31T04:32:52.962Z,69.03
2023-01-31T04:35:19.675Z,68.51
2023-01-31T04:37:46.318Z,68.57
2023-01-31T04:40:16.092Z,68.61
2023-01-31T04:42:42.612Z,68.76
2023-01-31T04:45:10.465Z,68.31
2023-01-31T04:47:37.455Z,68.11
2023-01-31T04:50:04.852Z,68.67
2023-01-31T04:52:31.733Z,68.91
2023-01-31T04:54:58.258Z,69.05
2023-01-31T04:57:25.703Z,68.69
2023-01-31T04:59:52.225Z,69.08
2023-01-31T05:02:18.839Z,68.74
2023-01-31T05:04:45.351Z,68.94
2023-01-31T05:07:11.866Z,69.27
2023-01-31T05:09:38.835Z,68.30
2023-01-31T05:12:06.684Z,68.65
2023-01-31T05:14:33.187Z,68.74
2023-01-31T05:16:59.687Z,68.70
2023-01-31T05:19:26.159Z,68.82
2023-01-31T05:21:55.421Z,68.84
2023-01-31T05:24:22.742Z,68.99
2023-01-31T05:26:51.460Z,69.12
2023-01-31T05:29:19.236Z,68.47
2023-01-31T05:31:46.046Z,68.87
2023-01-31T05:34:15.200Z,68.93
2023-01-31T05:36:44.595Z,68.40
2023-01-31T05:39:11.083Z,68.31
2023-01-31T05:41:37.598Z,68.52
2023-01-31T05:44:04.195Z,68.02
2023-01-31T05:46:31.124Z,67.75
2023-01-31T05:48:58.272Z,67.63
2023-01-31T05:51:24.815Z,67.56
2023-01-31T05:53:51.869Z,67.50
2023-01-31T05:56:18.359Z,67.40
2023-01-31T05:58:48.143Z,67.85
2023-01-31T06:01:14.745Z,67.39
2023-01-31T06:03:41.178Z,67.13
2023-01-31T06:06:07.653Z,67.04
2023-01-31T06:08:34.159Z,66.82
2023-01-31T06:11:05.166Z,67.21
2023-01-31T06:13:33.074Z,67.36
2023-01-31T06:16:00.628Z,67.56
2023-01-31T06:18:27.375Z,67.43
2023-01-31T06:20:53.979Z,67.55
2023-01-31T06:23:20.855Z,67.18
2023-01-31T06:25:52.663Z,67.32
2023-01-31T06:28:19.838Z,67.77
2023-01-31T06:30:46.509Z,67.84
2023-01-31T06:33:13.660Z,67.79
2023-01-31T06:35:40.540Z,67.54
2023-01-31T06:38:08.438Z,67.51
2023-01-31T06:40:36.510Z,67.84
2023-01-31T06:43:03.355Z,67.76
2023-01-31T06:45:30.605Z,67.74
2023-01-31T06:47:57.185Z,67.64
2023-01-31T06:50:23.879Z,67.66
2023-01-31T06:52:50.433Z,67.41
2023-01-31T06:55:17.113Z,67.22
2023-01-31T06:57:48.383Z,67.19
2023-01-31T07:00:16.387Z,67.25
2023-01-31T07:02:42.874Z,67.75
2023-01-31T07:05:09.698Z,67.54
2023-01-31T07:07:36.225Z,67.51
2023-01-31T07:10:02.965Z,67.09
2023-01-31T07:12:30.252Z,66.81
2023-01-31T07:14:56.896Z,66.98
2023-01-31T07:17:23.624Z,67.25
2023-01-31T07:19:50.104Z,66.80
2023-01-31T07:22:16.701Z,66.67
2023-01-31T07:24:43.213Z,66.48
2023-01-31T07:27:14.017Z,66.45
2023-01-31T07:29:40.675Z,66.54
2023-01-31T07:32:07.737Z,66.34
2023-01-31T07:34:34.284Z,66.21
2023-01-31T07:37:01.224Z,66.02
2023-01-31T07:39:30.123Z,65.94
2023-01-31T07:41:56.732Z,66.09
2023-01-31T07:44:23.224Z,66.43
2023-01-31T07:46:51.064Z,66.47
2023-01-31T07:49:17.505Z,66.58
2023-01-31T07:51:44.019Z,66.62
2023-01-31T07:54:11.748Z,66.51
2023-01-31T07:56:38.609Z,66.63
2023-01-31T07:59:05.240Z,66.66
2023-01-31T08:01:50.954Z,66.16
2023-01-31T08:04:21.983Z,66.11
2023-01-31T08:06:53.430Z,66.32
2023-01-31T08:09:19.946Z,66.74
2023-01-31T08:11:47.245Z,66.85
2023-01-31T08:14:14.091Z,66.20
2023-01-31T08:16:40.591Z,66.23
2023-01-31T08:19:07.161Z,66.13
2023-01-31T08:21:33.738Z,65.74
2023-01-31T08:24:00.189Z,65.62
2023-01-31T08:26:26.707Z,65.37
2023-01-31T08:28:54.176Z,65.69
2023-01-31T08:31:24.888Z,65.62
2023-01-31T08:33:53.181Z,65.59
2023-01-31T08:36:22.818Z,65.24
2023-01-31T08:38:50.503Z,65.27
2023-01-31T08:41:19.962Z,65.26
2023-01-31T08:43:57.882Z,65.02
2023-01-31T08:46:30.622Z,64.49
2023-01-31T08:48:57.934Z,64.49
2023-01-31T08:51:25.147Z,64.13
2023-01-31T08:53:51.998Z,64.25
2023-01-31T08:56:21.148Z,64.55
2023-01-31T08:58:47.736Z,64.26
2023-01-31T09:01:18.288Z,63.84
2023-01-31T09:03:46.502Z,63.61
2023-01-31T09:06:20.576Z,63.44
2023-01-31T09:08:47.114Z,64.04
2023-01-31T09:11:19.551Z,63.95
2023-01-31T09:13:51.231Z,63.85
2023-01-31T09:16:19.876Z,64.37
2023-01-31T09:18:46.988Z,63.91
2023-01-31T09:21:18.296Z,63.65
2023-01-31T09:23:45.575Z,63.88
2023-01-31T09:26:14.209Z,64.10
2023-01-31T09:28:45.272Z,64.30
2023-01-31T09:31:18.091Z,64.38
2023-01-31T09:33:45.133Z,64.43
2023-01-31T09:36:19.213Z,64.37
2023-01-31T09:38:46.387Z,64.68
2023-01-31T09:41:33.846Z,64.91
2023-01-31T09:44:36.565Z,64.25
2023-01-31T09:47:24.610Z,64.53
2023-01-31T09:50:05.159Z,65.17
2023-01-31T09:52:32.526Z,65.32
2023-01-31T09:54:59.892Z,65.46
2023-01-31T09:58:00.511Z,64.95
2023-01-31T10:01:06.512Z,65.08
2023-01-31T10:03:51.972Z,64.70
2023-01-31T10:06:29.610Z,64.74
2023-01-31T10:09:10.562Z,64.62
2023-01-31T10:11:59.916Z,64.80
2023-01-31T10:14:36.813Z,64.64
2023-01-31T10:17:33.197Z,65.33
2023-01-31T10:20:18.433Z,64.88
2023-01-31T10:23:04.462Z,64.78
2023-01-31T10:25:46.597Z,65.31
2023-01-31T10:28:23.774Z,65.49
2023-01-31T10:31:01.392Z,65.55
2023-01-31T10:33:54.859Z,65.85
2023-01-31T10:36:40.655Z,65.52
2023-01-31T10:39:44.602Z,65.67
2023-01-31T10:42:34.018Z,65.69
2023-01-31T10:45:18.555Z,66.23
2023-01-31T10:47:52.126Z,66.41
2023-01-31T10:50:33.991Z,66.13
2023-01-31T10:53:38.065Z,66.24
2023-01-31T10:56:11.200Z,66.52
2023-01-31T10:58:38.956Z,66.70
2023-01-31T11:01:11.691Z,66.57
2023-01-31T11:03:38.746Z,67.17
2023-01-31T11:06:06.487Z,66.90
2023-01-31T11:08:57.310Z,67.02
2023-01-31T11:11:27.011Z,66.61
2023-01-31T11:14:00.726Z,66.46
2023-01-31T11:16:35.199Z,66.26
2023-01-31T11:19:15.545Z,66.77
2023-01-31T11:21:42.131Z,66.67
2023-01-31T11:24:22.620Z,66.95
2023-01-31T11:26:58.192Z,67.20
2023-01-31T11:29:31.862Z,67.16
2023-01-31T11:32:01.868Z,67.45
2023-01-31T11:34:30.832Z,67.35
2023-01-31T11:37:18.459Z,67.78
2023-01-31T11:39:55.859Z,68.27
2023-01-31T11:42:22.787Z,68.32
2023-01-31T11:45:04.233Z,68.76
2023-01-31T11:47:42.502Z,69.19
2023-01-31T11:50:22.572Z,69.22
2023-01-31T11:53:02.175Z,68.83
2023-01-31T11:55:39.004Z,69.16
2023-01-31T11:58:20.776Z,68.76
2023-01-31T12:01:00.491Z,68.96
2023-01-31T12:03:29.325Z,68.84
2023-01-31T12:06:09.306Z,68.17
2023-01-31T12:08:43.395Z,68.07
2023-01-31T12:11:19.096Z,68.54
2023-01-31T12:13:52.301Z,68.83
2023-01-31T12:16:27.568Z,68.84
2023-01-31T12:19:07.841Z,68.99
2023-01-31T12:21:52.791Z,68.90
2023-01-31T12:24:45.510Z,68.78
2023-01-31T12:27:22.370Z,68.84
2023-01-31T12:30:21.421Z,69.06
2023-01-31T12:33:26.063Z,69.79
2023-01-31T12:36:21.374Z,69.85
2023-01-31T12:39:32.559Z,69.37
2023-01-31T12:42:11.422Z,69.45
2023-01-31T12:44:49.782Z,69.40
2023-01-31T12:47:45.347Z,69.41
2023-01-31T12:50:30.607Z,69.89
2023-01-31T12:53:42.012Z,70.50
2023-01-31T12:56:34.640Z,70.22
2023-01-31T12:59:56.282Z,70.74
2023-01-31T13:02:49.768Z,71.12
2023-01-31T13:05:37.319Z,70.49
2023-01-31T13:08:17.369Z,70.20
2023-01-31T13:11:12.734Z,70.17
2023-01-31T13:13:50.613Z,69.94
2023-01-31T13:16:35.643Z,69.95
2023-01-31T13:19:10.675Z,69.57
2023-01-31T13:21:46.095Z,69.52
2023-01-31T13:24:31.245Z,69.55
2023-01-31T13:27:16.433Z,69.23
2023-01-31T13:29:57.259Z,69.50
2023-01-31T13:32:33.105Z,69.24
2023-01-31T13:35:13.345Z,68.93
2023-01-31T13:37:46.289Z,69.47
2023-01-31T13:40:24.817Z,69.59
2023-01-31T13:42:53.406Z,69.66
2023-01-31T13:45:23.962Z,69.61
2023-01-31T13:48:03.585Z,69.85
2023-01-31T13:50:39.987Z,69.62
2023-01-31T13:53:20.541Z,70.06
2023-01-31T13:55:50.749Z,70.10
2023-01-31T13:58:28.272Z,69.92
2023-01-31T14:01:17.715Z,69.88
2023-01-31T14:04:15.428Z,70.12
2023-01-31T14:06:57.086Z,71.00
2023-01-31T14:09:29.740Z,70.33
2023-01-31T14:12:09.650Z,70.45
2023-01-31T14:14:39.354Z,70.83
2023-01-31T14:17:28.296Z,70.89
2023-01-31T14:19:57.582Z,71.23
2023-01-31T14:22:41.466Z,71.17
2023-01-31T14:25:11.014Z,70.54
2023-01-31T14:28:02.287Z,70.46
2023-01-31T14:30:47.507Z,70.46
2023-01-31T14:33:14.007Z,70.90
2023-01-31T14:36:05.914Z,70.69
2023-01-31T14:39:16.608Z,70.84
2023-01-31T14:42:46.809Z,71.05
2023-01-31T14:45:32.246Z,70.76
2023-01-31T14:48:23.677Z,70.66
2023-01-31T14:51:23.251Z,70.75
2023-01-31T14:54:08.027Z,71.02
2023-01-31T14:57:15.062Z,70.78
2023-01-31T14:59:53.899Z,70.46
2023-01-31T15:02:49.577Z,71.05
2023-01-31T15:05:40.383Z,71.08
2023-01-31T15:08:15.812Z,71.85
2023-01-31T15:11:04.044Z,71.20
2023-01-31T15:13:50.705Z,71.76
2023-01-31T15:16:20.806Z,71.38
2023-01-31T15:19:14.420Z,72.45
2023-01-31T15:21:55.414Z,72.95
2023-01-31T15:24:26.991Z,72.84
2023-01-31T15:26:55.705Z,71.96
2023-01-31T15:29:27.399Z,71.77
2023-01-31T15:32:02.657Z,71.86
2023-01-31T15:34:47.048Z,71.36
2023-01-31T15:37:29.270Z,72.29
2023-01-31T15:40:04.402Z,72.47
2023-01-31T15:42:34.302Z,73.30
2023-01-31T15:45:25.870Z,73.38
2023-01-31T15:48:17.571Z,73.21
2023-01-31T15:50:59.354Z,74.01
2023-01-31T15:53:30.914Z,73.74
2023-01-31T15:56:05.253Z,73.51
2023-01-31T15:58:36.686Z,74.39
2023-01-31T16:01:04.574Z,74.19
2023-01-31T16:03:41.819Z,73.65
2023-01-31T16:06:38.211Z,73.35
2023-01-31T16:09:08.063Z,72.88
2023-01-31T16:11:36.243Z,73.71
2023-01-31T16:14:07.552Z,73.87
2023-01-31T16:16:36.253Z,73.01
2023-01-31T16:19:04.140Z,74.13
2023-01-31T16:21:41.252Z,74.69
2023-01-31T16:24:16.115Z,74.55
2023-01-31T16:27:05.445Z,74.69
2023-01-31T16:29:43.554Z,74.51
2023-01-31T16:32:23.980Z,74.54
2023-01-31T16:35:05.455Z,74.33
2023-01-31T16:37:38.646Z,74.55
2023-01-31T16:40:17.064Z,75.34
2023-01-31T16:42:43.876Z,75.42
2023-01-31T16:45:33.228Z,75.02
2023-01-31T16:48:22.461Z,75.13
2023-01-31T16:50:52.777Z,73.73
2023-01-31T16:53:34.979Z,73.94
2023-01-31T16:56:13.809Z,74.12
2023-01-31T16:58:55.614Z,74.14
2023-01-31T17:01:33.189Z,74.82
2023-01-31T17:04:26.131Z,74.08
2023-01-31T17:07:05.359Z,73.61
2023-01-31T17:09:33.035Z,73.47
2023-01-31T17:11:59.694Z,72.96
2023-01-31T17:14:26.276Z,73.67
2023-01-31T17:16:54.325Z,73.06
2023-01-31T17:19:21.059Z,73.43
2023-01-31T17:21:49.672Z,74.09
2023-01-31T17:24:22.478Z,73.92
2023-01-31T17:26:49.148Z,73.54
2023-01-31T17:29:15.961Z,73.57
2023-01-31T17:31:42.558Z,74.02
2023-01-31T17:34:17.305Z,73.84
2023-01-31T17:36:45.507Z,72.83
2023-01-31T17:39:12.079Z,73.38
2023-01-31T17:41:41.167Z,73.13
2023-01-31T17:44:14.063Z,72.45
2023-01-31T17:46:42.312Z,73.39
2023-01-31T17:49:08.984Z,73.10
2023-01-31T17:51:35.535Z,73.40
2023-01-31T17:54:02.110Z,73.04
2023-01-31T17:56:28.613Z,72.67
2023-01-31T17:58:55.125Z,72.21
2023-01-31T18:01:21.707Z,72.00
2023-01-31T18:03:49.026Z,72.12
2023-01-31T18:06:15.539Z,72.34
2023-01-31T18:08:42.039Z,72.43
2023-01-31T18:11:16.011Z,72.61
2023-01-31T18:13:43.888Z,72.61
2023-01-31T18:16:16.868Z,72.88
2023-01-31T18:18:44.275Z,72.60
2023-01-31T18:21:17.221Z,72.11
2023-01-31T18:23:49.677Z,72.36
2023-01-31T18:26:17.628Z,72.56
2023-01-31T18:28:44.304Z,73.17
2023-01-31T18:31:13.711Z,73.41
2023-01-31T18:33:43.580Z,73.22
2023-01-31T18:36:14.024Z,72.34
2023-01-31T18:38:43.729Z,72.18
2023-01-31T18:41:16.492Z,72.77
2023-01-31T18:43:43.533Z,73.14
2023-01-31T18:46:11.786Z,72.73
2023-01-31T18:48:40.374Z,72.98
2023-01-31T18:51:11.700Z,72.47
2023-01-31T18:53:42.502Z,72.60
2023-01-31T18:56:19.141Z,72.46
2023-01-31T18:58:46.891Z,72.99
2023-01-31T19:01:20.929Z,73.21
2023-01-31T19:03:50.351Z,73.03
2023-01-31T19:06:20.836Z,72.65
2023-01-31T19:08:50.384Z,72.68
2023-01-31T19:11:19.664Z,72.77
2023-01-31T19:13:46.334Z,72.44
2023-01-31T19:16:23.964Z,72.60
2023-01-31T19:18:51.304Z,72.71
2023-01-31T19:21:30.569Z,72.35
2023-01-31T19:24:00.836Z,71.89
2023-01-31T19:26:28.869Z,72.07
2023-01-31T19:28:56.759Z,70.92
2023-01-31T19:31:26.780Z,71.79
2023-01-31T19:33:56.990Z,72.15
2023-01-31T19:36:29.230Z,71.79
2023-01-31T19:38:58.587Z,72.71
2023-01-31T19:41:27.824Z,72.60
2023-01-31T19:44:00.063Z,71.87
2023-01-31T19:46:31.799Z,72.06
2023-01-31T19:48:59.580Z,72.82
2023-01-31T19:51:26.867Z,72.22
2023-01-31T19:54:01.110Z,71.70
2023-01-31T19:56:28.399Z,71.95
2023-01-31T19:58:54.945Z,72.20
2023-01-31T20:01:22.031Z,71.57
2023-01-31T20:03:49.990Z,71.95
2023-01-31T20:06:25.579Z,71.20
2023-01-31T20:08:55.988Z,71.50
2023-01-31T20:11:24.970Z,71.25
2023-01-31T20:13:53.621Z,72.12
2023-01-31T20:16:21.970Z,71.65
2023-01-31T20:18:50.981Z,71.76
2023-01-31T20:21:20.631Z,71.40
2023-01-31T20:23:48.559Z,70.94
2023-01-31T20:26:17.749Z,70.94
2023-01-31T20:28:44.508Z,71.61
2023-01-31T20:31:13.850Z,71.68
2023-01-31T20:33:40.893Z,71.80
2023-01-31T20:36:08.065Z,71.08
2023-01-31T20:38:34.548Z,71.33
2023-01-31T20:41:01.011Z,71.48
2023-01-31T20:43:27.542Z,71.79
2023-01-31T20:46:05.243Z,71.17
2023-01-31T20:48:31.784Z,71.87
2023-01-31T20:50:58.787Z,72.18
2023-01-31T20:53:28.634Z,71.78
2023-01-31T20:56:01.645Z,71.19
2023-01-31T20:58:33.074Z,71.58
2023-01-31T21:01:00.069Z,71.73
2023-01-31T21:03:28.329Z,71.92
2023-01-31T21:05:59.431Z,70.76
2023-01-31T21:08:27.413Z,71.48
2023-01-31T21:10:58.130Z,70.70
2023-01-31T21:13:31.388Z,71.11
2023-01-31T21:16:04.496Z,70.90
2023-01-31T21:18:35.232Z,70.18
2023-01-31T21:21:08.805Z,70.19
2023-01-31T21:23:37.353Z,70.46
2023-01-31T21:26:07.158Z,69.33
2023-01-31T21:28:34.153Z,69.54
2023-01-31T21:31:04.386Z,69.21
2023-01-31T21:33:31.645Z,69.75
2023-01-31T21:36:00.442Z,69.57
2023-01-31T21:38:27.079Z,69.24
2023-01-31T21:41:13.538Z,69.38
2023-01-31T21:43:42.757Z,69.68
2023-01-31T21:46:13.614Z,69.82
2023-01-31T21:48:41.094Z,70.14
2023-01-31T21:51:13.560Z,70.57
2023-01-31T21:53:41.187Z,70.51
2023-01-31T21:56:22.200Z,70.40
2023-01-31T21:58:49.230Z,70.57
2023-01-31T22:01:29.442Z,70.73
2023-01-31T22:03:57.167Z,70.53
2023-01-31T22:06:39.566Z,70.13
2023-01-31T22:09:10.677Z,70.05
2023-01-31T22:11:38.268Z,70.11
2023-01-31T22:14:09.332Z,70.43
2023-01-31T22:16:36.961Z,70.68
2023-01-31T22:19:04.844Z,70.55
2023-01-31T22:21:35.855Z,70.43
2023-01-31T22:24:06.236Z,70.08
2023-01-31T22:26:36.991Z,70.17
2023-01-31T22:29:08.378Z,69.88
2023-01-31T22:31:35.995Z,69.73
2023-01-31T22:34:05.368Z,69.79
2023-01-31T22:36:32.850Z,69.16
2023-01-31T22:38:59.622Z,69.41
2023-01-31T22:41:26.159Z,69.89
2023-01-31T22:43:54.299Z,69.59
2023-01-31T22:46:24.832Z,69.45
2023-01-31T22:48:52.360Z,69.78
2023-01-31T22:51:25.921Z,69.57
2023-01-31T22:53:56.921Z,69.65
2023-01-31T22:56:30.268Z,69.79
2023-01-31T22:58:59.388Z,69.55
2023-01-31T23:01:34.513Z,69.44
2023-01-31T23:04:03.977Z,69.57
2023-01-31T23:06:30.706Z,69.76
2023-01-31T23:08:58.083Z,69.54
2023-01-31T23:11:25.682Z,69.79
2023-01-31T23:13:52.423Z,69.82
2023-01-31T23:16:42.181Z,69.72
2023-01-31T23:19:09.233Z,70.22
2023-01-31T23:21:38.689Z,70.36
2023-01-31T23:24:07.352Z,70.15
2023-01-31T23:26:35.074Z,70.40
2023-01-31T23:29:01.799Z,69.79
2023-01-31T23:31:28.514Z,69.92
2023-01-31T23:33:55.260Z,70.19
2023-01-31T23:36:21.737Z,69.90
2023-01-31T23:38:48.279Z,69.82
2023-01-31T23:41:14.711Z,70.14
2023-01-31T23:43:41.191Z,70.28
2023-01-31T23:46:08.315Z,70.24
2023-01-31T23:48:36.866Z,70.27
2023-01-31T23:51:04.909Z,70.49
2023-01-31T23:53:31.348Z,70.80
2023-01-31T23:55:57.796Z,71.10
2023-01-31T23:58:24.392Z,70.72
